Terminal Aerodrome Forecast
Issued by NWS Albuquerque, NM

Home | Current Version | Previous Version | Text Only | Print | Product List | Glossary On
Versions: 1 2 3 4 5 6 7 8 9 10 11 12 13 14 15 16 17 18 19
871
FTUS45 KABQ 190542 RRB
TAFABQ
TAF
KABQ 190542Z 1906/2006 33007KT P6SM BKN050
     FM191000 23006KT P6SM SCT060
     FM191800 27010KT P6SM BKN200
     FM192100 28011G19KT P6SM SCT060 BKN150=

USA.gov is the U.S. government's official web portal to all federal, state and local government web resources and services.